sensor_id;sensor_type;location;lat;lon;timestamp;pressure;altitude;pressure_sealevel;temperature;humidity
42727;BME280;28372;56.832;60.658;2024-02-26T00:01:16;99552.09;;;-0.60;38.37
42727;BME280;28372;56.832;60.658;2024-02-26T00:03:44;99555.16;;;-0.73;38.04
42727;BME280;28372;56.832;60.658;2024-02-26T00:06:15;99560.31;;;-0.61;37.87
42727;BME280;28372;56.832;60.658;2024-02-26T00:08:46;99545.91;;;-0.71;38.43
42727;BME280;28372;56.832;60.658;2024-02-26T00:11:15;99538.63;;;-0.80;38.06
42727;BME280;28372;56.832;60.658;2024-02-26T00:13:44;99547.56;;;-0.92;38.00
42727;BME280;28372;56.832;60.658;2024-02-26T00:16:12;99543.09;;;-0.91;37.81
42727;BME280;28372;56.832;60.658;2024-02-26T00:18:39;99547.84;;;-0.93;37.28
42727;BME280;28372;56.832;60.658;2024-02-26T00:21:07;99546.59;;;-0.80;37.44
42727;BME280;28372;56.832;60.658;2024-02-26T00:23:35;99536.69;;;-0.90;36.67
42727;BME280;28372;56.832;60.658;2024-02-26T00:26:03;99549.09;;;-1.01;36.54
42727;BME280;28372;56.832;60.658;2024-02-26T00:28:31;99543.28;;;-0.98;37.07
42727;BME280;28372;56.832;60.658;2024-02-26T00:30:58;99535.31;;;-0.98;37.23
42727;BME280;28372;56.832;60.658;2024-02-26T00:33:26;99524.56;;;-1.13;36.39
42727;BME280;28372;56.832;60.658;2024-02-26T00:35:55;99539.25;;;-1.28;37.50
42727;BME280;28372;56.832;60.658;2024-02-26T00:38:25;99538.06;;;-1.42;37.18
42727;BME280;28372;56.832;60.658;2024-02-26T00:40:54;99536.56;;;-1.33;37.31
42727;BME280;28372;56.832;60.658;2024-02-26T00:43:21;99520.97;;;-1.51;36.42
42727;BME280;28372;56.832;60.658;2024-02-26T00:45:49;99526.72;;;-1.60;36.99
42727;BME280;28372;56.832;60.658;2024-02-26T00:48:17;99535.53;;;-1.76;36.53
42727;BME280;28372;56.832;60.658;2024-02-26T00:50:45;99522.22;;;-1.81;37.02
42727;BME280;28372;56.832;60.658;2024-02-26T00:53:12;99545.38;;;-1.77;36.82
42727;BME280;28372;56.832;60.658;2024-02-26T00:55:40;99530.78;;;-1.74;36.77
42727;BME280;28372;56.832;60.658;2024-02-26T00:58:09;99541.59;;;-1.81;36.31
42727;BME280;28372;56.832;60.658;2024-02-26T01:00:37;99536.03;;;-1.79;36.63
42727;BME280;28372;56.832;60.658;2024-02-26T01:03:05;99529.06;;;-1.85;36.26
42727;BME280;28372;56.832;60.658;2024-02-26T01:05:35;99523.88;;;-1.97;35.95
42727;BME280;28372;56.832;60.658;2024-02-26T01:08:04;99525.50;;;-1.96;35.73
42727;BME280;28372;56.832;60.658;2024-02-26T01:10:35;99533.63;;;-2.03;35.48
42727;BME280;28372;56.832;60.658;2024-02-26T01:13:05;99530.06;;;-1.92;35.05
42727;BME280;28372;56.832;60.658;2024-02-26T01:15:32;99534.50;;;-1.97;35.05
42727;BME280;28372;56.832;60.658;2024-02-26T01:18:00;99524.56;;;-2.07;35.27
42727;BME280;28372;56.832;60.658;2024-02-26T01:20:28;99532.59;;;-2.02;35.30
42727;BME280;28372;56.832;60.658;2024-02-26T01:22:55;99522.94;;;-2.08;34.43
42727;BME280;28372;56.832;60.658;2024-02-26T01:25:23;99530.72;;;-2.01;35.07
42727;BME280;28372;56.832;60.658;2024-02-26T01:27:52;99531.06;;;-2.15;35.03
42727;BME280;28372;56.832;60.658;2024-02-26T01:30:20;99528.81;;;-2.06;35.27
42727;BME280;28372;56.832;60.658;2024-02-26T01:32:48;99530.59;;;-2.29;34.59
42727;BME280;28372;56.832;60.658;2024-02-26T01:35:16;99527.81;;;-2.39;34.29
42727;BME280;28372;56.832;60.658;2024-02-26T01:37:44;99532.53;;;-2.24;35.02
42727;BME280;28372;56.832;60.658;2024-02-26T01:40:12;99537.03;;;-2.25;35.17
42727;BME280;28372;56.832;60.658;2024-02-26T01:42:45;99527.78;;;-2.22;34.02
42727;BME280;28372;56.832;60.658;2024-02-26T01:45:15;99529.97;;;-2.36;34.86
42727;BME280;28372;56.832;60.658;2024-02-26T01:47:52;99536.41;;;-1.93;33.84
42727;BME280;28372;56.832;60.658;2024-02-26T01:50:24;99533.16;;;-2.17;33.15
42727;BME280;28372;56.832;60.658;2024-02-26T01:52:55;99527.94;;;-2.29;33.97
42727;BME280;28372;56.832;60.658;2024-02-26T01:55:26;99532.91;;;-2.15;33.76
42727;BME280;28372;56.832;60.658;2024-02-26T01:57:57;99525.75;;;-2.15;33.66
42727;BME280;28372;56.832;60.658;2024-02-26T02:00:25;99526.53;;;-2.36;32.54
42727;BME280;28372;56.832;60.658;2024-02-26T02:02:53;99518.69;;;-2.48;32.42
42727;BME280;28372;56.832;60.658;2024-02-26T02:05:22;99537.63;;;-2.39;32.71
42727;BME280;28372;56.832;60.658;2024-02-26T02:07:51;99540.91;;;-2.32;32.39
42727;BME280;28372;56.832;60.658;2024-02-26T02:10:22;99543.72;;;-2.39;32.20
42727;BME280;28372;56.832;60.658;2024-02-26T02:12:55;99541.28;;;-2.24;32.31
42727;BME280;28372;56.832;60.658;2024-02-26T02:15:25;99547.75;;;-2.53;31.83
42727;BME280;28372;56.832;60.658;2024-02-26T02:17:53;99542.75;;;-2.33;32.96
42727;BME280;28372;56.832;60.658;2024-02-26T02:20:26;99541.63;;;-2.20;31.98
42727;BME280;28372;56.832;60.658;2024-02-26T02:22:56;99537.38;;;-2.38;31.99
42727;BME280;28372;56.832;60.658;2024-02-26T02:25:24;99531.19;;;-2.44;31.57
42727;BME280;28372;56.832;60.658;2024-02-26T02:27:55;99542.47;;;-2.14;31.82
42727;BME280;28372;56.832;60.658;2024-02-26T02:30:29;99539.66;;;-2.08;30.93
42727;BME280;28372;56.832;60.658;2024-02-26T02:33:00;99541.66;;;-2.15;30.86
42727;BME280;28372;56.832;60.658;2024-02-26T02:35:29;99533.97;;;-2.16;31.69
42727;BME280;28372;56.832;60.658;2024-02-26T02:37:57;99533.72;;;-2.15;30.98
42727;BME280;28372;56.832;60.658;2024-02-26T02:40:25;99544.81;;;-2.18;31.46
42727;BME280;28372;56.832;60.658;2024-02-26T02:42:53;99536.38;;;-2.15;31.06
42727;BME280;28372;56.832;60.658;2024-02-26T02:45:22;99540.50;;;-2.24;31.04
42727;BME280;28372;56.832;60.658;2024-02-26T02:47:51;99540.78;;;-2.20;30.50
42727;BME280;28372;56.832;60.658;2024-02-26T02:50:18;99524.25;;;-2.28;30.29
42727;BME280;28372;56.832;60.658;2024-02-26T02:52:47;99525.31;;;-2.29;30.76
42727;BME280;28372;56.832;60.658;2024-02-26T02:55:18;99529.03;;;-2.30;30.71
42727;BME280;28372;56.832;60.658;2024-02-26T02:57:47;99514.94;;;-2.30;29.47
42727;BME280;28372;56.832;60.658;2024-02-26T03:00:16;99516.31;;;-2.28;30.65
42727;BME280;28372;56.832;60.658;2024-02-26T03:02:44;99516.97;;;-2.37;29.98
42727;BME280;28372;56.832;60.658;2024-02-26T03:05:13;99519.34;;;-2.19;29.22
42727;BME280;28372;56.832;60.658;2024-02-26T03:07:41;99520.94;;;-2.18;29.92
42727;BME280;28372;56.832;60.658;2024-02-26T03:10:09;99519.28;;;-2.24;29.73
42727;BME280;28372;56.832;60.658;2024-02-26T03:12:38;99514.91;;;-2.13;29.51
42727;BME280;28372;56.832;60.658;2024-02-26T03:15:06;99502.28;;;-2.28;29.94
42727;BME280;28372;56.832;60.658;2024-02-26T03:17:34;99513.56;;;-2.16;29.65
42727;BME280;28372;56.832;60.658;2024-02-26T03:20:02;99517.09;;;-2.10;29.15
42727;BME280;28372;56.832;60.658;2024-02-26T03:22:32;99522.75;;;-2.01;29.37
42727;BME280;28372;56.832;60.658;2024-02-26T03:25:02;99504.22;;;-2.01;28.62
42727;BME280;28372;56.832;60.658;2024-02-26T03:27:32;99520.66;;;-1.99;28.41
42727;BME280;28372;56.832;60.658;2024-02-26T03:30:00;99520.97;;;-1.96;28.81
42727;BME280;28372;56.832;60.658;2024-02-26T03:32:29;99531.50;;;-2.01;29.06
42727;BME280;28372;56.832;60.658;2024-02-26T03:34:57;99516.38;;;-1.61;28.97
42727;BME280;28372;56.832;60.658;2024-02-26T03:37:25;99515.81;;;-0.76;28.90
42727;BME280;28372;56.832;60.658;2024-02-26T03:39:53;99527.28;;;0.15;26.80
42727;BME280;28372;56.832;60.658;2024-02-26T03:42:21;99511.00;;;0.90;26.21
42727;BME280;28372;56.832;60.658;2024-02-26T03:44:49;99514.75;;;1.35;24.64
42727;BME280;28372;56.832;60.658;2024-02-26T03:47:16;99523.75;;;1.76;26.33
42727;BME280;28372;56.832;60.658;2024-02-26T03:49:45;99523.06;;;2.30;24.65
42727;BME280;28372;56.832;60.658;2024-02-26T03:52:14;99520.09;;;2.82;24.39
42727;BME280;28372;56.832;60.658;2024-02-26T03:54:42;99525.94;;;3.29;24.31
42727;BME280;28372;56.832;60.658;2024-02-26T03:57:10;99540.69;;;3.85;24.57
42727;BME280;28372;56.832;60.658;2024-02-26T03:59:41;99524.44;;;4.24;23.59
42727;BME280;28372;56.832;60.658;2024-02-26T04:02:09;99540.44;;;4.92;22.72
42727;BME280;28372;56.832;60.658;2024-02-26T04:04:37;99535.47;;;5.51;21.94
42727;BME280;28372;56.832;60.658;2024-02-26T04:07:05;99539.84;;;5.94;21.19
42727;BME280;28372;56.832;60.658;2024-02-26T04:09:33;99534.38;;;6.41;21.58
42727;BME280;28372;56.832;60.658;2024-02-26T04:12:03;99516.94;;;6.89;21.33
42727;BME280;28372;56.832;60.658;2024-02-26T04:14:31;99536.19;;;7.18;20.09
42727;BME280;28372;56.832;60.658;2024-02-26T04:17:01;99538.09;;;7.72;19.43
42727;BME280;28372;56.832;60.658;2024-02-26T04:19:29;99537.72;;;8.36;19.51
42727;BME280;28372;56.832;60.658;2024-02-26T04:21:57;99534.78;;;8.90;17.79
42727;BME280;28372;56.832;60.658;2024-02-26T04:24:26;99524.63;;;9.40;18.26
42727;BME280;28372;56.832;60.658;2024-02-26T04:26:55;99525.94;;;9.81;18.09
42727;BME280;28372;56.832;60.658;2024-02-26T04:29:22;99523.03;;;10.25;17.64
42727;BME280;28372;56.832;60.658;2024-02-26T04:31:50;99529.94;;;10.73;16.32
42727;BME280;28372;56.832;60.658;2024-02-26T04:34:19;99536.94;;;10.95;16.99
42727;BME280;28372;56.832;60.658;2024-02-26T04:36:48;99533.59;;;11.32;15.56
42727;BME280;28372;56.832;60.658;2024-02-26T04:39:17;99538.38;;;11.47;15.26
42727;BME280;28372;56.832;60.658;2024-02-26T04:41:45;99536.16;;;11.62;16.47
42727;BME280;28372;56.832;60.658;2024-02-26T04:44:16;99535.56;;;12.14;16.13
42727;BME280;28372;56.832;60.658;2024-02-26T04:46:44;99529.84;;;12.81;14.72
42727;BME280;28372;56.832;60.658;2024-02-26T04:49:12;99525.03;;;13.31;14.14
42727;BME280;28372;56.832;60.658;2024-02-26T04:51:39;99526.78;;;13.68;14.43
42727;BME280;28372;56.832;60.658;2024-02-26T04:54:07;99541.44;;;14.11;13.91
42727;BME280;28372;56.832;60.658;2024-02-26T04:56:35;99504.97;;;14.32;14.00
42727;BME280;28372;56.832;60.658;2024-02-26T04:59:05;99534.09;;;14.63;14.00
42727;BME280;28372;56.832;60.658;2024-02-26T05:01:32;99537.50;;;14.96;12.88
42727;BME280;28372;56.832;60.658;2024-02-26T05:04:01;99524.00;;;14.83;13.38
42727;BME280;28372;56.832;60.658;2024-02-26T05:06:30;99539.22;;;14.84;13.28
42727;BME280;28372;56.832;60.658;2024-02-26T05:09:03;99549.47;;;15.11;13.66
42727;BME280;28372;56.832;60.658;2024-02-26T05:11:32;99548.03;;;15.36;13.09
42727;BME280;28372;56.832;60.658;2024-02-26T05:14:03;99543.88;;;15.66;12.54
42727;BME280;28372;56.832;60.658;2024-02-26T05:16:31;99553.38;;;15.95;12.26
42727;BME280;28372;56.832;60.658;2024-02-26T05:19:00;99539.75;;;15.95;12.36
42727;BME280;28372;56.832;60.658;2024-02-26T05:21:30;99556.84;;;16.42;12.59
42727;BME280;28372;56.832;60.658;2024-02-26T05:23:57;99535.31;;;16.90;12.16
42727;BME280;28372;56.832;60.658;2024-02-26T05:26:25;99538.50;;;17.30;12.28
42727;BME280;28372;56.832;60.658;2024-02-26T05:28:54;99539.88;;;17.51;11.74
42727;BME280;28372;56.832;60.658;2024-02-26T05:31:28;99556.47;;;17.69;11.65
42727;BME280;28372;56.832;60.658;2024-02-26T05:33:56;99542.03;;;18.13;11.51
42727;BME280;28372;56.832;60.658;2024-02-26T05:36:25;99547.72;;;18.42;10.84
42727;BME280;28372;56.832;60.658;2024-02-26T05:38:56;99554.03;;;18.53;10.42
42727;BME280;28372;56.832;60.658;2024-02-26T05:41:25;99533.72;;;18.58;10.10
42727;BME280;28372;56.832;60.658;2024-02-26T05:43:53;99527.06;;;18.62;10.81
42727;BME280;28372;56.832;60.658;2024-02-26T05:46:22;99537.41;;;18.91;10.24
42727;BME280;28372;56.832;60.658;2024-02-26T05:48:52;99535.88;;;19.00;11.16
42727;BME280;28372;56.832;60.658;2024-02-26T05:51:20;99543.44;;;19.29;10.50
42727;BME280;28372;56.832;60.658;2024-02-26T05:53:49;99538.00;;;19.58;10.50
42727;BME280;28372;56.832;60.658;2024-02-26T05:56:23;99531.00;;;19.82;10.35
42727;BME280;28372;56.832;60.658;2024-02-26T05:58:50;99522.38;;;20.12;10.13
42727;BME280;28372;56.832;60.658;2024-02-26T06:01:22;99526.28;;;20.29;9.81
42727;BME280;28372;56.832;60.658;2024-02-26T06:03:51;99528.97;;;20.54;10.17
42727;BME280;28372;56.832;60.658;2024-02-26T06:06:18;99517.16;;;20.76;9.67
42727;BME280;28372;56.832;60.658;2024-02-26T06:08:46;99523.75;;;21.07;9.86
42727;BME280;28372;56.832;60.658;2024-02-26T06:11:14;99524.75;;;21.35;9.91
42727;BME280;28372;56.832;60.658;2024-02-26T06:13:43;99518.28;;;21.67;9.30
42727;BME280;28372;56.832;60.658;2024-02-26T06:16:11;99531.28;;;21.63;9.18
42727;BME280;28372;56.832;60.658;2024-02-26T06:18:39;99524.44;;;21.85;9.37
42727;BME280;28372;56.832;60.658;2024-02-26T06:21:10;99523.84;;;22.08;9.42
42727;BME280;28372;56.832;60.658;2024-02-26T06:23:42;99526.66;;;22.50;9.68
42727;BME280;28372;56.832;60.658;2024-02-26T06:26:10;99524.28;;;22.83;9.26
42727;BME280;28372;56.832;60.658;2024-02-26T06:28:38;99522.56;;;22.97;8.60
42727;BME280;28372;56.832;60.658;2024-02-26T06:31:09;99520.34;;;23.19;8.98
42727;BME280;28372;56.832;60.658;2024-02-26T06:33:37;99520.00;;;23.44;8.52
42727;BME280;28372;56.832;60.658;2024-02-26T06:36:05;99511.31;;;23.42;8.57
42727;BME280;28372;56.832;60.658;2024-02-26T06:38:33;99521.34;;;23.59;8.68
42727;BME280;28372;56.832;60.658;2024-02-26T06:41:00;99522.47;;;23.62;8.35
42727;BME280;28372;56.832;60.658;2024-02-26T06:43:33;99519.69;;;23.62;8.53
42727;BME280;28372;56.832;60.658;2024-02-26T06:46:00;99510.00;;;23.54;8.77
42727;BME280;28372;56.832;60.658;2024-02-26T06:48:28;99516.06;;;23.69;8.55
42727;BME280;28372;56.832;60.658;2024-02-26T06:50:56;99496.78;;;24.12;8.66
42727;BME280;28372;56.832;60.658;2024-02-26T06:53:23;99513.66;;;24.42;8.43
42727;BME280;28372;56.832;60.658;2024-02-26T06:55:53;99498.16;;;24.04;8.15
42727;BME280;28372;56.832;60.658;2024-02-26T06:58:23;99504.69;;;24.14;8.08
42727;BME280;28372;56.832;60.658;2024-02-26T07:00:51;99503.56;;;24.32;8.74
42727;BME280;28372;56.832;60.658;2024-02-26T07:03:19;99498.81;;;24.32;8.55
42727;BME280;28372;56.832;60.658;2024-02-26T07:05:46;99501.84;;;24.18;8.35
42727;BME280;28372;56.832;60.658;2024-02-26T07:08:15;99482.47;;;23.98;8.50
42727;BME280;28372;56.832;60.658;2024-02-26T07:10:42;99496.47;;;23.83;8.62
42727;BME280;28372;56.832;60.658;2024-02-26T07:13:11;99482.00;;;23.75;8.51
42727;BME280;28372;56.832;60.658;2024-02-26T07:15:39;99496.25;;;23.74;8.33
42727;BME280;28372;56.832;60.658;2024-02-26T07:18:07;99486.16;;;23.36;8.53
42727;BME280;28372;56.832;60.658;2024-02-26T07:20:35;99463.00;;;22.99;8.76
42727;BME280;28372;56.832;60.658;2024-02-26T07:23:02;99479.31;;;22.86;8.92
42727;BME280;28372;56.832;60.658;2024-02-26T07:25:30;99499.19;;;22.74;8.69
42727;BME280;28372;56.832;60.658;2024-02-26T07:27:59;99475.56;;;22.38;8.79
42727;BME280;28372;56.832;60.658;2024-02-26T07:30:27;99483.19;;;22.23;8.92
42727;BME280;28372;56.832;60.658;2024-02-26T07:32:55;99470.56;;;21.84;9.32
42727;BME280;28372;56.832;60.658;2024-02-26T07:35:22;99468.47;;;21.43;9.37
42727;BME280;28372;56.832;60.658;2024-02-26T07:37:50;99461.34;;;20.90;9.80
42727;BME280;28372;56.832;60.658;2024-02-26T07:40:18;99453.66;;;20.37;9.77
42727;BME280;28372;56.832;60.658;2024-02-26T07:42:46;99454.53;;;19.88;10.23
42727;BME280;28372;56.832;60.658;2024-02-26T07:45:14;99451.34;;;19.24;10.40
42727;BME280;28372;56.832;60.658;2024-02-26T07:47:43;99449.56;;;18.62;10.54
42727;BME280;28372;56.832;60.658;2024-02-26T07:50:11;99453.63;;;18.16;11.22
42727;BME280;28372;56.832;60.658;2024-02-26T07:52:39;99467.06;;;17.84;11.42
42727;BME280;28372;56.832;60.658;2024-02-26T07:55:07;99470.22;;;17.41;11.53
42727;BME280;28372;56.832;60.658;2024-02-26T07:57:35;99456.69;;;17.14;11.87
42727;BME280;28372;56.832;60.658;2024-02-26T08:00:03;99460.19;;;16.81;11.84
42727;BME280;28372;56.832;60.658;2024-02-26T08:02:38;99464.84;;;16.80;12.30
42727;BME280;28372;56.832;60.658;2024-02-26T08:05:06;99445.03;;;16.53;12.41
42727;BME280;28372;56.832;60.658;2024-02-26T08:07:34;99448.09;;;16.21;12.42
42727;BME280;28372;56.832;60.658;2024-02-26T08:10:02;99433.00;;;15.77;12.53
42727;BME280;28372;56.832;60.658;2024-02-26T08:12:32;99436.59;;;15.58;15.03
42727;BME280;28372;56.832;60.658;2024-02-26T08:15:06;99450.97;;;15.32;13.40
42727;BME280;28372;56.832;60.658;2024-02-26T08:17:35;99445.28;;;14.98;13.01
42727;BME280;28372;56.832;60.658;2024-02-26T08:20:04;99447.50;;;14.72;13.39
42727;BME280;28372;56.832;60.658;2024-02-26T08:22:32;99437.00;;;14.35;13.43
42727;BME280;28372;56.832;60.658;2024-02-26T08:25:01;99438.56;;;14.17;13.95
42727;BME280;28372;56.832;60.658;2024-02-26T08:27:34;99442.00;;;13.98;13.84
42727;BME280;28372;56.832;60.658;2024-02-26T08:30:02;99434.19;;;13.32;14.22
42727;BME280;28372;56.832;60.658;2024-02-26T08:32:34;99440.75;;;13.15;14.67
42727;BME280;28372;56.832;60.658;2024-02-26T08:35:02;99446.75;;;12.64;14.77
42727;BME280;28372;56.832;60.658;2024-02-26T08:37:30;99443.63;;;12.50;15.22
42727;BME280;28372;56.832;60.658;2024-02-26T08:39:58;99436.56;;;12.21;15.56
42727;BME280;28372;56.832;60.658;2024-02-26T08:42:33;99442.69;;;12.05;15.67
42727;BME280;28372;56.832;60.658;2024-02-26T08:45:02;99441.88;;;11.80;15.70
42727;BME280;28372;56.832;60.658;2024-02-26T08:47:30;99430.13;;;11.63;16.44
42727;BME280;28372;56.832;60.658;2024-02-26T08:50:00;99428.31;;;11.68;15.96
42727;BME280;28372;56.832;60.658;2024-02-26T08:52:29;99437.47;;;11.63;15.92
42727;BME280;28372;56.832;60.658;2024-02-26T08:54:57;99416.00;;;11.45;16.17
42727;BME280;28372;56.832;60.658;2024-02-26T08:57:26;99424.91;;;11.34;16.11
42727;BME280;28372;56.832;60.658;2024-02-26T08:59:57;99424.84;;;11.09;16.22
42727;BME280;28372;56.832;60.658;2024-02-26T09:02:27;99425.13;;;10.95;16.84
42727;BME280;28372;56.832;60.658;2024-02-26T09:04:54;99421.94;;;10.80;16.20
42727;BME280;28372;56.832;60.658;2024-02-26T09:07:22;99403.22;;;10.54;16.89
42727;BME280;28372;56.832;60.658;2024-02-26T09:09:50;99415.75;;;10.38;16.34
42727;BME280;28372;56.832;60.658;2024-02-26T09:12:18;99422.31;;;10.28;16.56
42727;BME280;28372;56.832;60.658;2024-02-26T09:14:48;99426.59;;;10.29;16.58
42727;BME280;28372;56.832;60.658;2024-02-26T09:17:16;99428.25;;;9.91;17.00
42727;BME280;28372;56.832;60.658;2024-02-26T09:19:47;99424.69;;;9.78;17.11
42727;BME280;28372;56.832;60.658;2024-02-26T09:22:15;99421.31;;;9.52;17.60
42727;BME280;28372;56.832;60.658;2024-02-26T09:24:46;99425.81;;;9.39;17.32
42727;BME280;28372;56.832;60.658;2024-02-26T09:27:14;99428.22;;;9.32;17.25
42727;BME280;28372;56.832;60.658;2024-02-26T09:29:41;99427.72;;;9.30;17.34
42727;BME280;28372;56.832;60.658;2024-02-26T09:32:09;99440.38;;;9.47;17.59
42727;BME280;28372;56.832;60.658;2024-02-26T09:34:40;99452.94;;;9.51;17.27
42727;BME280;28372;56.832;60.658;2024-02-26T09:37:09;99445.00;;;9.46;17.10
42727;BME280;28372;56.832;60.658;2024-02-26T09:39:47;99460.94;;;9.30;17.25
42727;BME280;28372;56.832;60.658;2024-02-26T09:42:18;99465.13;;;9.57;16.89
42727;BME280;28372;56.832;60.658;2024-02-26T09:44:53;99425.50;;;9.32;17.33
42727;BME280;28372;56.832;60.658;2024-02-26T09:47:23;99450.28;;;9.34;17.59
42727;BME280;28372;56.832;60.658;2024-02-26T09:49:56;99463.00;;;9.33;17.34
42727;BME280;28372;56.832;60.658;2024-02-26T09:52:25;99447.16;;;9.23;17.34
42727;BME280;28372;56.832;60.658;2024-02-26T09:54:55;99449.69;;;9.19;17.23
42727;BME280;28372;56.832;60.658;2024-02-26T09:57:23;99455.59;;;9.04;17.40
42727;BME280;28372;56.832;60.658;2024-02-26T09:59:57;99431.44;;;8.99;16.95
42727;BME280;28372;56.832;60.658;2024-02-26T10:02:26;99442.59;;;8.71;16.99
42727;BME280;28372;56.832;60.658;2024-02-26T10:04:57;99427.78;;;8.24;17.75
42727;BME280;28372;56.832;60.658;2024-02-26T10:07:29;99435.72;;;8.21;17.62
42727;BME280;28372;56.832;60.658;2024-02-26T10:09:57;99442.47;;;8.01;17.55
42727;BME280;28372;56.832;60.658;2024-02-26T10:12:26;99442.56;;;7.69;18.13
42727;BME280;28372;56.832;60.658;2024-02-26T10:14:56;99436.63;;;7.50;18.16
42727;BME280;28372;56.832;60.658;2024-02-26T10:17:26;99439.75;;;7.43;19.28
42727;BME280;28372;56.832;60.658;2024-02-26T10:20:13;99443.97;;;7.67;18.79
42727;BME280;28372;56.832;60.658;2024-02-26T10:22:47;99422.28;;;7.32;18.93
42727;BME280;28372;56.832;60.658;2024-02-26T10:25:17;99423.91;;;7.10;19.19
42727;BME280;28372;56.832;60.658;2024-02-26T10:27:47;99411.09;;;7.07;19.30
42727;BME280;28372;56.832;60.658;2024-02-26T10:30:22;99411.16;;;7.25;19.54
42727;BME280;28372;56.832;60.658;2024-02-26T10:32:50;99415.88;;;7.19;19.13
42727;BME280;28372;56.832;60.658;2024-02-26T10:35:19;99406.25;;;6.95;19.51
42727;BME280;28372;56.832;60.658;2024-02-26T10:37:51;99406.50;;;6.85;19.09
42727;BME280;28372;56.832;60.658;2024-02-26T10:40:20;99404.31;;;6.64;19.09
42727;BME280;28372;56.832;60.658;2024-02-26T10:42:47;99398.88;;;6.56;19.73
42727;BME280;28372;56.832;60.658;2024-02-26T10:45:15;99399.78;;;6.51;19.94
42727;BME280;28372;56.832;60.658;2024-02-26T10:47:43;99394.53;;;6.46;20.51
42727;BME280;28372;56.832;60.658;2024-02-26T10:50:12;99411.06;;;6.39;20.29
42727;BME280;28372;56.832;60.658;2024-02-26T10:52:44;99385.84;;;6.12;20.49
42727;BME280;28372;56.832;60.658;2024-02-26T10:55:16;99406.53;;;6.26;19.86
42727;BME280;28372;56.832;60.658;2024-02-26T10:57:53;99403.66;;;6.22;19.55
42727;BME280;28372;56.832;60.658;2024-02-26T11:00:28;99398.91;;;5.91;19.60
42727;BME280;28372;56.832;60.658;2024-02-26T11:03:00;99408.84;;;5.91;20.32
42727;BME280;28372;56.832;60.658;2024-02-26T11:05:30;99408.56;;;5.78;19.48
42727;BME280;28372;56.832;60.658;2024-02-26T11:07:58;99408.56;;;5.78;19.55
42727;BME280;28372;56.832;60.658;2024-02-26T11:10:29;99410.56;;;5.73;19.68
42727;BME280;28372;56.832;60.658;2024-02-26T11:13:00;99410.03;;;5.71;19.52
42727;BME280;28372;56.832;60.658;2024-02-26T11:15:30;99397.53;;;5.66;19.97
42727;BME280;28372;56.832;60.658;2024-02-26T11:18:19;99412.31;;;5.91;19.69
42727;BME280;28372;56.832;60.658;2024-02-26T11:20:48;99421.59;;;5.71;20.14
42727;BME280;28372;56.832;60.658;2024-02-26T11:23:16;99409.56;;;5.69;19.88
42727;BME280;28372;56.832;60.658;2024-02-26T11:25:44;99418.78;;;5.76;20.19
42727;BME280;28372;56.832;60.658;2024-02-26T11:28:14;99428.06;;;5.84;20.21
42727;BME280;28372;56.832;60.658;2024-02-26T11:30:48;99425.53;;;5.88;20.34
42727;BME280;28372;56.832;60.658;2024-02-26T11:33:19;99417.91;;;5.81;19.90
42727;BME280;28372;56.832;60.658;2024-02-26T11:35:48;99405.38;;;5.76;20.37
42727;BME280;28372;56.832;60.658;2024-02-26T11:38:21;99399.00;;;5.86;20.03
42727;BME280;28372;56.832;60.658;2024-02-26T11:40:51;99404.69;;;5.71;19.65
42727;BME280;28372;56.832;60.658;2024-02-26T11:43:53;99415.09;;;5.86;19.53
42727;BME280;28372;56.832;60.658;2024-02-26T11:46:47;99411.41;;;5.96;19.32
42727;BME280;28372;56.832;60.658;2024-02-26T11:51:57;99407.97;;;5.68;19.81
42727;BME280;28372;56.832;60.658;2024-02-26T11:54:44;99425.06;;;5.86;19.83
42727;BME280;28372;56.832;60.658;2024-02-26T11:57:28;99419.91;;;5.89;20.07
42727;BME280;28372;56.832;60.658;2024-02-26T12:02:50;99425.47;;;5.79;19.66
42727;BME280;28372;56.832;60.658;2024-02-26T12:05:33;99420.91;;;5.79;19.90
42727;BME280;28372;56.832;60.658;2024-02-26T12:08:05;99405.19;;;5.59;19.62
42727;BME280;28372;56.832;60.658;2024-02-26T12:10:37;99418.13;;;5.43;19.38
42727;BME280;28372;56.832;60.658;2024-02-26T12:13:13;99402.69;;;5.35;20.09
42727;BME280;28372;56.832;60.658;2024-02-26T12:15:57;99427.66;;;5.49;20.44
42727;BME280;28372;56.832;60.658;2024-02-26T12:18:28;99411.31;;;5.18;19.73
42727;BME280;28372;56.832;60.658;2024-02-26T12:21:04;99405.66;;;5.19;20.19
42727;BME280;28372;56.832;60.658;2024-02-26T12:23:34;99412.09;;;4.85;20.66
42727;BME280;28372;56.832;60.658;2024-02-26T12:26:02;99410.00;;;4.82;20.13
42727;BME280;28372;56.832;60.658;2024-02-26T12:28:34;99412.75;;;4.96;20.48
42727;BME280;28372;56.832;60.658;2024-02-26T12:31:06;99421.31;;;4.98;20.37
42727;BME280;28372;56.832;60.658;2024-02-26T12:33:37;99430.13;;;4.98;20.39
42727;BME280;28372;56.832;60.658;2024-02-26T12:36:07;99430.50;;;4.92;20.72
42727;BME280;28372;56.832;60.658;2024-02-26T12:38:35;99416.75;;;4.79;20.60
42727;BME280;28372;56.832;60.658;2024-02-26T12:41:06;99442.94;;;4.50;20.17
42727;BME280;28372;56.832;60.658;2024-02-26T12:43:38;99420.44;;;4.51;20.84
42727;BME280;28372;56.832;60.658;2024-02-26T12:46:06;99449.31;;;4.54;20.81
42727;BME280;28372;56.832;60.658;2024-02-26T12:48:36;99430.19;;;4.60;20.52
42727;BME280;28372;56.832;60.658;2024-02-26T12:51:07;99438.59;;;4.73;20.73
42727;BME280;28372;56.832;60.658;2024-02-26T12:53:38;99432.66;;;4.57;20.46
42727;BME280;28372;56.832;60.658;2024-02-26T12:56:10;99427.31;;;4.38;20.45
42727;BME280;28372;56.832;60.658;2024-02-26T12:58:42;99442.22;;;4.44;20.25
42727;BME280;28372;56.832;60.658;2024-02-26T13:01:15;99436.44;;;4.37;20.60
42727;BME280;28372;56.832;60.658;2024-02-26T13:03:44;99443.31;;;4.24;20.49
42727;BME280;28372;56.832;60.658;2024-02-26T13:06:12;99447.53;;;4.06;20.74
42727;BME280;28372;56.832;60.658;2024-02-26T13:08:42;99440.53;;;4.29;20.45
42727;BME280;28372;56.832;60.658;2024-02-26T13:11:13;99430.13;;;4.27;20.40
42727;BME280;28372;56.832;60.658;2024-02-26T13:13:42;99433.72;;;4.18;21.09